Time;durP1;ratioP1;P1;durP2;ratioP2;P2;SDS_P1;SDS_P2;PMS_P1;PMS_P2;Temp;Humidity;BMP_temperature;BMP_pressure;BME280_temperature;BME280_humidity;BME280_pressure;Samples;Min_cycle;Max_cycle;Signal;HPM_P1;HPM_P2
2023/05/18 00:02:14;;;;;;;10.07;6.70;;;11.40;73.70;;;;;;5020025;28;20188;-88
2023/05/18 00:04:41;;;;;;;7.17;6.47;;;11.10;75.30;;;;;;5019862;28;20740;-89
2023/05/18 00:07:10;;;;;;;7.33;6.63;;;10.90;76.30;;;;;;5018450;28;20561;-88
2023/05/18 00:09:36;;;;;;;7.17;6.47;;;10.80;75.90;;;;;;5016340;28;20187;-88
2023/05/18 00:12:03;;;;;;;6.73;6.03;;;10.80;76.50;;;;;;5016503;28;20201;-86
2023/05/18 00:14:29;;;;;;;8.00;6.20;;;10.80;75.90;;;;;;5018670;28;20217;-88
2023/05/18 00:16:56;;;;;;;7.23;6.53;;;10.90;75.90;;;;;;5017939;28;20189;-88
2023/05/18 00:19:23;;;;;;;6.80;6.20;;;10.90;75.90;;;;;;5021285;28;20167;-86
2023/05/18 00:21:50;;;;;;;6.47;5.87;;;10.90;75.80;;;;;;5027578;28;20188;-87
2023/05/18 00:24:16;;;;;;;7.90;5.77;;;10.90;75.30;;;;;;5018944;28;20312;-86
2023/05/18 00:26:44;;;;;;;8.80;6.20;;;11.00;74.40;;;;;;5020339;28;20211;-87
2023/05/18 00:29:10;;;;;;;6.97;5.70;;;11.00;74.90;;;;;;5019351;28;20177;-88
2023/05/18 00:31:37;;;;;;;6.90;5.43;;;11.00;74.60;;;;;;5018257;28;20219;-87
2023/05/18 00:34:07;;;;;;;6.90;5.67;;;11.00;74.40;;;;;;5019169;28;20196;-88
2023/05/18 00:36:34;;;;;;;6.63;5.93;;;10.90;74.40;;;;;;5006197;28;20177;-87
2023/05/18 00:39:01;;;;;;;6.87;5.93;;;11.00;74.00;;;;;;4999309;28;20560;-87
2023/05/18 00:41:26;;;;;;;6.57;5.90;;;11.00;73.60;;;;;;5007447;28;20192;-87
2023/05/18 00:43:53;;;;;;;5.60;5.03;;;11.00;73.20;;;;;;5019474;28;20782;-87
2023/05/18 00:46:19;;;;;;;6.27;5.67;;;11.00;72.20;;;;;;5018271;28;20282;-90
2023/05/18 00:48:45;;;;;;;6.57;5.90;;;11.00;73.70;;;;;;5019604;28;20208;-87
2023/05/18 00:51:11;;;;;;;6.73;6.03;;;11.00;74.50;;;;;;5018322;28;20169;-90
2023/05/18 00:53:37;;;;;;;5.90;5.30;;;11.00;73.60;;;;;;5000454;28;20690;-88
2023/05/18 00:56:03;;;;;;;6.27;5.47;;;11.00;72.10;;;;;;4999713;28;20591;-85
2023/05/18 00:58:30;;;;;;;5.77;5.20;;;11.00;71.50;;;;;;4999391;28;20178;-88
2023/05/18 01:00:56;;;;;;;5.83;5.33;;;11.10;72.10;;;;;;4999456;28;20202;-88
2023/05/18 01:03:22;;;;;;;5.70;5.20;;;11.00;72.20;;;;;;4999244;28;20212;-86
2023/05/18 01:05:54;;;;;;;5.83;5.23;;;11.00;72.60;;;;;;4998332;28;20184;-86
2023/05/18 01:08:21;;;;;;;6.93;5.90;;;11.00;72.20;;;;;;4998557;28;20640;-89
2023/05/18 01:11:10;;;;;;;5.97;5.37;;;10.90;72.90;;;;;;4996859;28;20275;-88
2023/05/18 01:14:05;;;;;;;5.80;5.30;;;10.80;73.30;;;;;;4998635;28;20670;-88
2023/05/18 01:16:40;;;;;;;5.67;5.13;;;10.70;73.80;;;;;;4997803;28;20197;-88
2023/05/18 01:19:34;;;;;;;7.73;5.17;;;10.70;73.90;;;;;;4998116;28;20196;-87
2023/05/18 01:22:28;;;;;;;5.97;5.37;;;10.50;74.80;;;;;;4999930;28;20230;-88
2023/05/18 01:25:03;;;;;;;7.57;5.80;;;10.40;75.40;;;;;;4985232;28;20677;-88
2023/05/18 01:27:34;;;;;;;5.43;4.90;;;10.30;76.00;;;;;;5017920;28;20270;-87
2023/05/18 01:30:02;;;;;;;5.60;5.10;;;10.30;75.30;;;;;;5017752;28;20199;-87
2023/05/18 01:32:27;;;;;;;5.53;4.77;;;10.30;75.30;;;;;;5013951;28;20216;-86
2023/05/18 01:34:53;;;;;;;6.40;5.13;;;10.30;75.40;;;;;;5016387;28;20200;-88
2023/05/18 01:37:18;;;;;;;7.20;5.60;;;10.30;74.90;;;;;;5016107;28;20277;-89
2023/05/18 01:39:44;;;;;;;6.57;4.83;;;10.30;74.60;;;;;;5016298;28;20759;-88
2023/05/18 01:42:20;;;;;;;5.73;4.97;;;10.30;74.50;;;;;;5010495;28;20187;-88
2023/05/18 01:45:00;;;;;;;6.23;5.03;;;10.30;74.20;;;;;;5018072;28;20252;-88
2023/05/18 01:47:29;;;;;;;5.93;5.33;;;10.30;74.20;;;;;;5021318;28;20165;-88
2023/05/18 01:50:21;;;;;;;6.23;5.17;;;10.20;74.60;;;;;;5021177;28;20241;-88
2023/05/18 01:53:03;;;;;;;5.90;5.13;;;10.10;75.30;;;;;;5020292;28;20194;-88
2023/05/18 01:55:30;;;;;;;5.90;5.30;;;10.10;74.30;;;;;;5020155;28;20187;-87
2023/05/18 01:57:57;;;;;;;5.73;5.10;;;10.20;74.00;;;;;;5019170;28;20175;-87
2023/05/18 02:00:23;;;;;;;7.07;5.77;;;10.20;73.80;;;;;;5022516;28;20217;-88
2023/05/18 02:02:49;;;;;;;5.93;5.23;;;10.20;74.30;;;;;;5012321;28;20200;-87
2023/05/18 02:05:15;;;;;;;5.97;5.37;;;10.10;74.10;;;;;;5001361;28;20589;-87
2023/05/18 02:07:42;;;;;;;6.17;5.07;;;10.20;74.30;;;;;;5001960;28;20189;-88
2023/05/18 02:10:09;;;;;;;5.27;4.47;;;10.00;75.00;;;;;;5001584;28;20195;-87
2023/05/18 02:12:36;;;;;;;5.67;4.50;;;9.90;75.70;;;;;;5002194;28;20228;-87
2023/05/18 02:15:04;;;;;;;5.00;4.50;;;9.80;76.10;;;;;;5017175;28;20237;-87
2023/05/18 02:17:32;;;;;;;5.97;4.87;;;9.70;77.20;;;;;;5023007;28;20681;-87
2023/05/18 02:19:58;;;;;;;6.07;4.83;;;9.60;78.00;;;;;;5029730;28;20186;-88
2023/05/18 02:22:23;;;;;;;5.33;4.83;;;9.60;78.00;;;;;;5039133;28;20263;-87
2023/05/18 02:24:49;;;;;;;6.23;4.83;;;9.60;77.10;;;;;;5022060;28;20250;-87
2023/05/18 02:27:15;;;;;;;7.23;5.00;;;9.60;76.80;;;;;;5023110;28;20178;-87
2023/05/18 02:29:41;;;;;;;5.03;4.53;;;9.70;76.60;;;;;;5021643;28;20198;-87
2023/05/18 02:32:07;;;;;;;8.80;4.40;;;9.70;76.30;;;;;;5022852;28;20213;-88
2023/05/18 02:34:34;;;;;;;8.30;4.93;;;9.70;76.10;;;;;;5023624;28;20206;-88
2023/05/18 02:37:02;;;;;;;5.07;4.00;;;9.70;76.10;;;;;;5020731;28;20280;-87
2023/05/18 02:39:28;;;;;;;5.27;4.27;;;9.60;76.80;;;;;;5020213;28;20224;-87
2023/05/18 02:41:54;;;;;;;6.23;4.67;;;9.60;76.30;;;;;;5020457;28;20186;-87
2023/05/18 02:44:20;;;;;;;5.20;4.50;;;9.60;76.10;;;;;;5021445;28;20201;-86
2023/05/18 02:46:46;;;;;;;7.17;4.67;;;9.60;76.20;;;;;;5019465;28;20208;-88
2023/05/18 02:49:11;;;;;;;5.30;4.37;;;9.40;76.70;;;;;;5021894;28;20280;-88
2023/05/18 02:51:37;;;;;;;8.63;4.40;;;9.40;76.60;;;;;;5017148;28;20225;-88
2023/05/18 02:54:03;;;;;;;5.73;4.67;;;9.30;76.90;;;;;;5021286;28;20205;-86
2023/05/18 02:56:28;;;;;;;4.83;3.93;;;9.20;77.00;;;;;;5021381;28;20181;-87
2023/05/18 02:58:57;;;;;;;5.83;4.20;;;9.20;76.80;;;;;;5020714;28;20192;-87
2023/05/18 03:01:26;;;;;;;5.37;4.37;;;9.20;76.80;;;;;;5019018;28;20676;-85
2023/05/18 03:03:58;;;;;;;6.20;4.47;;;9.30;76.90;;;;;;5012658;28;20198;-89
2023/05/18 03:06:25;;;;;;;4.27;3.77;;;9.20;76.90;;;;;;4999559;28;20268;-87
2023/05/18 03:08:54;;;;;;;6.13;4.03;;;9.20;76.90;;;;;;5002547;28;20205;-87
2023/05/18 03:11:21;;;;;;;7.77;4.63;;;9.10;78.10;;;;;;5002052;28;20222;-87
2023/05/18 03:13:47;;;;;;;6.83;4.37;;;9.00;79.60;;;;;;5002186;28;20256;-86
2023/05/18 03:16:13;;;;;;;5.37;4.67;;;8.90;80.50;;;;;;5003245;28;20270;-87
2023/05/18 03:18:39;;;;;;;5.33;4.67;;;8.90;80.40;;;;;;5001913;28;20463;-88
2023/05/18 03:21:05;;;;;;;7.37;4.63;;;9.00;79.90;;;;;;5008877;28;20690;-87
2023/05/18 03:23:30;;;;;;;5.50;4.70;;;8.90;78.70;;;;;;5001997;28;20621;-88
2023/05/18 03:25:56;;;;;;;7.83;4.77;;;9.00;78.20;;;;;;5002249;28;20182;-90
2023/05/18 03:28:22;;;;;;;6.00;4.87;;;9.00;78.10;;;;;;5000949;28;20186;-86
2023/05/18 03:30:47;;;;;;;6.30;4.27;;;8.90;77.80;;;;;;5012718;28;20240;-87
2023/05/18 03:33:13;;;;;;;6.00;4.60;;;8.90;77.70;;;;;;5020219;28;20205;-87
2023/05/18 03:35:39;;;;;;;8.27;4.30;;;9.00;77.80;;;;;;5020395;28;20181;-87
2023/05/18 03:38:06;;;;;;;5.57;5.07;;;9.00;77.10;;;;;;5001757;28;20186;-86
2023/05/18 03:40:31;;;;;;;4.23;3.80;;;9.00;77.00;;;;;;5000883;28;20329;-87
2023/05/18 03:42:57;;;;;;;4.87;4.00;;;9.00;77.10;;;;;;5002585;28;20210;-87
2023/05/18 03:45:23;;;;;;;5.63;5.03;;;9.00;77.30;;;;;;5001405;28;20198;-87
2023/05/18 03:47:50;;;;;;;8.93;4.50;;;8.90;77.30;;;;;;5001697;28;20475;-88
2023/05/18 03:50:16;;;;;;;6.50;4.30;;;9.00;76.80;;;;;;5001207;28;20186;-88
2023/05/18 03:52:43;;;;;;;8.33;4.43;;;9.00;76.40;;;;;;5002778;28;20729;-87
2023/05/18 03:55:10;;;;;;;4.57;4.13;;;9.10;76.50;;;;;;5011864;28;20237;-87
2023/05/18 03:57:36;;;;;;;7.03;4.10;;;9.10;76.50;;;;;;4999909;28;20244;-87
2023/05/18 04:00:12;;;;;;;5.33;3.93;;;9.10;77.60;;;;;;4998070;28;20206;-87
2023/05/18 04:02:38;;;;;;;4.17;3.70;;;9.00;76.80;;;;;;4998486;28;20181;-87
2023/05/18 04:05:05;;;;;;;6.50;4.10;;;9.00;77.20;;;;;;4999596;28;20280;-86
2023/05/18 04:07:31;;;;;;;6.93;3.80;;;9.00;77.30;;;;;;5000157;28;20653;-87
2023/05/18 04:09:57;;;;;;;6.17;4.00;;;9.00;77.10;;;;;;5005648;28;20225;-88
2023/05/18 04:12:22;;;;;;;4.20;3.80;;;9.00;77.30;;;;;;5018715;28;20217;-86
2023/05/18 04:14:48;;;;;;;6.00;4.07;;;9.00;77.60;;;;;;5018970;28;20198;-90
2023/05/18 04:17:21;;;;;;;4.87;4.03;;;9.00;78.10;;;;;;5019010;28;20173;-87
2023/05/18 04:19:47;;;;;;;4.43;3.87;;;9.00;78.30;;;;;;5022657;28;20204;-87
2023/05/18 04:22:13;;;;;;;4.13;3.70;;;8.90;78.50;;;;;;5022488;28;20233;-87
2023/05/18 04:24:44;;;;;;;4.83;4.00;;;9.00;77.90;;;;;;4995141;28;20568;-87
2023/05/18 04:27:10;;;;;;;6.30;3.83;;;9.00;78.50;;;;;;5010011;28;20197;-87
2023/05/18 04:29:42;;;;;;;4.00;3.70;;;9.10;78.00;;;;;;5013983;28;20212;-87
2023/05/18 04:32:09;;;;;;;5.30;3.87;;;9.10;77.70;;;;;;5014020;28;20205;-88
2023/05/18 04:34:36;;;;;;;5.73;3.93;;;9.10;77.80;;;;;;5018594;28;20252;-87
2023/05/18 04:37:04;;;;;;;10.73;7.60;;;9.10;77.90;;;;;;5008600;28;20232;-86
2023/05/18 04:39:34;;;;;;;5.00;4.33;;;9.10;78.00;;;;;;4999828;28;20194;-88
2023/05/18 04:42:00;;;;;;;5.83;3.93;;;9.10;77.90;;;;;;5000532;28;20187;-87
2023/05/18 04:44:33;;;;;;;4.67;3.90;;;9.10;77.90;;;;;;4999863;28;20209;-86
2023/05/18 04:46:59;;;;;;;7.30;3.67;;;9.00;77.10;;;;;;4999831;28;20281;-86
2023/05/18 04:49:25;;;;;;;6.63;4.23;;;9.00;77.20;;;;;;4999073;28;20230;-86
2023/05/18 04:51:58;;;;;;;6.93;3.80;;;9.00;77.00;;;;;;4996754;28;20305;-86
2023/05/18 04:54:25;;;;;;;4.80;3.60;;;8.90;77.50;;;;;;5012483;28;20197;-88
2023/05/18 04:56:51;;;;;;;4.17;3.70;;;8.90;77.60;;;;;;5017303;28;20588;-85
2023/05/18 04:59:17;;;;;;;7.03;4.23;;;8.90;78.10;;;;;;5017086;28;20197;-87
2023/05/18 05:01:43;;;;;;;6.90;3.77;;;9.00;77.80;;;;;;5017311;28;20277;-87
2023/05/18 05:04:09;;;;;;;8.50;4.37;;;9.00;77.50;;;;;;5017439;28;20205;-88
2023/05/18 05:06:34;;;;;;;4.17;3.37;;;9.00;76.90;;;;;;5017700;28;20256;-88
2023/05/18 05:09:00;;;;;;;7.27;4.23;;;9.00;77.20;;;;;;5018453;28;20189;-87
2023/05/18 05:11:26;;;;;;;9.23;4.60;;;9.10;76.80;;;;;;5015970;28;20192;-86
2023/05/18 05:13:51;;;;;;;6.90;4.10;;;9.10;77.00;;;;;;5018893;28;20198;-87
2023/05/18 05:16:17;;;;;;;9.77;4.27;;;9.10;77.10;;;;;;5019257;28;20663;-86
2023/05/18 05:18:43;;;;;;;6.07;4.07;;;9.10;76.00;;;;;;5018720;28;20217;-86
2023/05/18 05:21:09;;;;;;;5.30;4.03;;;9.10;75.60;;;;;;5033296;28;20181;-88
2023/05/18 05:23:35;;;;;;;7.80;4.20;;;9.10;76.70;;;;;;5021306;28;20278;-87
2023/05/18 05:26:00;;;;;;;6.00;3.97;;;9.10;76.80;;;;;;5016684;28;20182;-87
2023/05/18 05:28:26;;;;;;;10.40;4.67;;;9.10;76.60;;;;;;5016433;28;20188;-87
2023/05/18 05:30:52;;;;;;;6.90;4.67;;;9.30;76.10;;;;;;5000358;28;20252;-87
2023/05/18 05:33:18;;;;;;;4.80;4.10;;;9.30;75.70;;;;;;4997405;28;20252;-87
2023/05/18 05:35:43;;;;;;;5.67;4.07;;;9.30;75.70;;;;;;4998921;28;20170;-87
2023/05/18 05:38:09;;;;;;;9.40;4.77;;;9.30;75.90;;;;;;4999037;28;20264;-87
2023/05/18 05:40:35;;;;;;;6.80;4.10;;;9.30;75.60;;;;;;4997381;28;20198;-87
2023/05/18 05:43:01;;;;;;;7.57;4.20;;;9.40;75.50;;;;;;4996930;28;20198;-87
2023/05/18 05:45:29;;;;;;;7.53;3.90;;;9.50;75.20;;;;;;4997941;28;20217;-86
2023/05/18 05:47:55;;;;;;;9.43;4.67;;;9.50;74.60;;;;;;5016494;28;20689;-86
2023/05/18 05:50:20;;;;;;;11.33;4.00;;;9.50;74.20;;;;;;5016158;28;20211;-86
2023/05/18 05:52:46;;;;;;;6.77;4.23;;;9.60;73.70;;;;;;5016600;28;20213;-87
2023/05/18 05:55:12;;;;;;;5.37;4.37;;;9.70;73.40;;;;;;5015637;28;20588;-87
2023/05/18 05:57:41;;;;;;;6.77;4.43;;;9.80;72.00;;;;;;5014266;28;20181;-87
2023/05/18 06:00:09;;;;;;;8.03;4.03;;;9.80;71.10;;;;;;5016371;28;20186;-87
2023/05/18 06:02:36;;;;;;;6.17;4.20;;;9.80;72.10;;;;;;5018777;28;20579;-87
2023/05/18 06:05:02;;;;;;;7.57;4.60;;;9.90;72.00;;;;;;5019616;28;20197;-87
2023/05/18 06:07:28;;;;;;;5.73;4.43;;;10.00;70.20;;;;;;5020762;28;20203;-87
2023/05/18 06:09:54;;;;;;;4.57;4.00;;;10.10;70.20;;;;;;5019602;28;20182;-87
2023/05/18 06:12:20;;;;;;;5.47;3.87;;;10.20;71.00;;;;;;5020935;28;20210;-90
2023/05/18 06:14:46;;;;;;;5.43;3.57;;;10.20;69.00;;;;;;5018162;28;20210;-87
2023/05/18 06:17:11;;;;;;;7.07;3.87;;;10.30;69.20;;;;;;5005060;28;20182;-88
2023/05/18 06:19:37;;;;;;;10.43;4.57;;;10.40;68.90;;;;;;5015551;28;20182;-91
2023/05/18 06:22:03;;;;;;;4.27;3.73;;;10.50;67.60;;;;;;5025843;28;20186;-89
2023/05/18 06:24:28;;;;;;;9.33;4.43;;;10.60;66.90;;;;;;5007643;28;20202;-90
2023/05/18 06:26:54;;;;;;;8.30;3.97;;;10.60;66.50;;;;;;5015966;28;20600;-87
2023/05/18 06:29:20;;;;;;;5.80;3.80;;;10.70;66.50;;;;;;4999486;28;20259;-88
2023/05/18 06:31:46;;;;;;;9.23;3.53;;;10.80;65.60;;;;;;4999333;28;20210;-89
2023/05/18 06:34:12;;;;;;;7.47;3.53;;;10.90;64.90;;;;;;4999911;28;20762;-88
2023/05/18 06:36:37;;;;;;;8.43;4.13;;;10.80;64.10;;;;;;5000274;28;20293;-86
2023/05/18 06:39:04;;;;;;;8.13;3.83;;;10.90;65.10;;;;;;5001165;28;20338;-88
2023/05/18 06:41:30;;;;;;;6.97;4.07;;;10.90;64.40;;;;;;5001968;28;20183;-88
2023/05/18 06:43:59;;;;;;;6.57;3.63;;;11.00;62.90;;;;;;5000992;28;20546;-88
2023/05/18 06:46:25;;;;;;;6.17;3.87;;;11.00;62.80;;;;;;5004847;28;20178;-92
2023/05/18 06:48:51;;;;;;;7.03;4.07;;;11.00;62.80;;;;;;5011178;28;20194;-90
2023/05/18 06:51:17;;;;;;;7.73;3.87;;;11.00;62.10;;;;;;5003032;28;20221;-89
2023/05/18 06:53:42;;;;;;;6.37;3.63;;;11.10;62.30;;;;;;5006982;28;20302;-90
2023/05/18 06:56:10;;;;;;;8.03;3.80;;;11.20;61.60;;;;;;5017630;28;20178;-88
2023/05/18 06:58:36;;;;;;;7.40;3.67;;;11.30;62.40;;;;;;5019038;28;20192;-87
2023/05/18 07:01:01;;;;;;;8.00;4.00;;;11.50;61.60;;;;;;5020952;28;20178;-88
2023/05/18 07:03:28;;;;;;;5.53;3.73;;;11.50;60.70;;;;;;5021431;28;20185;-87
2023/05/18 07:05:54;;;;;;;10.20;4.90;;;11.60;60.40;;;;;;5023245;28;20167;-88
2023/05/18 07:08:20;;;;;;;6.00;3.73;;;11.60;59.90;;;;;;5021808;28;20236;-89
2023/05/18 07:10:45;;;;;;;6.20;3.70;;;11.70;60.60;;;;;;5021346;28;20188;-90
2023/05/18 07:13:11;;;;;;;5.07;3.37;;;11.90;60.90;;;;;;5018804;28;20239;-86
2023/05/18 07:15:37;;;;;;;7.63;4.10;;;12.10;59.20;;;;;;5012865;28;20195;-90
2023/05/18 07:18:03;;;;;;;5.07;3.97;;;12.20;57.90;;;;;;5007739;28;20186;-89
2023/05/18 07:20:28;;;;;;;8.73;4.23;;;12.20;58.60;;;;;;5031511;28;20194;-88
2023/05/18 07:22:54;;;;;;;7.83;4.00;;;12.30;57.60;;;;;;5038544;28;20178;-88
2023/05/18 07:25:21;;;;;;;6.47;4.03;;;12.40;57.90;;;;;;5038430;28;20200;-88
2023/05/18 07:27:46;;;;;;;5.60;4.17;;;12.50;56.50;;;;;;5042527;28;20186;-88
2023/05/18 07:30:12;;;;;;;7.93;4.50;;;12.50;57.00;;;;;;5029519;28;20212;-88
2023/05/18 07:32:38;;;;;;;9.90;4.33;;;12.50;57.00;;;;;;5015080;28;20220;-88
2023/05/18 07:35:04;;;;;;;5.53;3.57;;;12.50;56.50;;;;;;5022696;28;20200;-91
2023/05/18 07:37:29;;;;;;;6.63;4.13;;;12.60;56.40;;;;;;5005624;28;20525;-88
2023/05/18 07:39:55;;;;;;;5.73;4.10;;;12.70;56.50;;;;;;5016360;28;20266;-87
2023/05/18 07:42:21;;;;;;;5.30;3.83;;;12.70;56.50;;;;;;5016328;28;20187;-89
2023/05/18 07:44:47;;;;;;;6.57;4.00;;;12.90;56.50;;;;;;5014368;28;20221;-89
2023/05/18 07:47:12;;;;;;;6.27;3.67;;;12.90;55.90;;;;;;5014191;28;20500;-91
2023/05/18 07:49:38;;;;;;;5.63;4.17;;;13.00;55.40;;;;;;5015505;28;20197;-86
2023/05/18 07:52:07;;;;;;;5.33;3.93;;;13.00;55.10;;;;;;5010087;28;20793;-88
2023/05/18 07:54:33;;;;;;;7.80;4.03;;;13.10;55.30;;;;;;5008733;28;20319;-89
2023/05/18 07:56:58;;;;;;;6.07;4.00;;;13.20;55.10;;;;;;5012563;28;20327;-88
2023/05/18 07:59:24;;;;;;;7.07;4.00;;;13.30;56.10;;;;;;5011404;28;20208;-87
2023/05/18 08:01:50;;;;;;;6.63;4.33;;;13.60;54.40;;;;;;5012894;28;20204;-88
2023/05/18 08:04:15;;;;;;;8.37;4.10;;;13.70;54.00;;;;;;5012946;28;20209;-89
2023/05/18 08:06:41;;;;;;;5.20;4.23;;;13.90;53.60;;;;;;5012235;28;20202;-90
2023/05/18 08:09:07;;;;;;;7.07;4.30;;;14.00;53.10;;;;;;5011201;28;20572;-91
2023/05/18 08:11:33;;;;;;;7.47;4.17;;;14.00;53.10;;;;;;5011010;28;20213;-88
2023/05/18 08:13:58;;;;;;;6.43;4.47;;;14.10;52.80;;;;;;5009203;28;20244;-89
2023/05/18 08:16:24;;;;;;;8.77;4.27;;;14.10;52.50;;;;;;5013210;28;20272;-88
2023/05/18 08:18:50;;;;;;;6.57;4.30;;;14.20;52.50;;;;;;5015094;28;20532;-89
2023/05/18 08:21:16;;;;;;;5.50;4.03;;;14.20;51.40;;;;;;5013489;28;20199;-87
2023/05/18 08:23:42;;;;;;;5.57;3.83;;;14.50;52.50;;;;;;5013128;28;20227;-88
2023/05/18 08:26:08;;;;;;;6.00;3.97;;;14.40;53.00;;;;;;5013703;28;20202;-92
2023/05/18 08:28:33;;;;;;;4.97;3.93;;;14.70;52.50;;;;;;5015030;28;20192;-89
2023/05/18 08:30:59;;;;;;;6.37;4.40;;;14.80;51.90;;;;;;5014708;28;20224;-91
2023/05/18 08:33:24;;;;;;;7.83;4.47;;;15.00;50.10;;;;;;5013602;28;20737;-90
2023/05/18 08:35:50;;;;;;;7.10;4.60;;;15.10;51.00;;;;;;5011633;28;20256;-90
2023/05/18 08:38:19;;;;;;;7.17;4.73;;;15.20;50.60;;;;;;5012112;28;20932;-92
2023/05/18 08:41:04;;;;;;;6.70;4.70;;;15.50;50.50;;;;;;5016072;28;20487;-87
2023/05/18 08:43:32;;;;;;;9.57;4.93;;;15.40;49.70;;;;;;5013109;28;20235;-87
2023/05/18 08:46:17;;;;;;;8.23;4.93;;;15.40;49.50;;;;;;5014100;28;20257;-91
2023/05/18 08:48:47;;;;;;;6.97;4.63;;;15.50;50.60;;;;;;5014154;28;20249;-91
2023/05/18 08:51:18;;;;;;;6.03;4.37;;;15.60;49.80;;;;;;5014733;28;21138;-90
2023/05/18 08:53:48;;;;;;;8.00;5.27;;;15.70;49.90;;;;;;5013706;28;20248;-88
2023/05/18 08:56:15;;;;;;;5.33;4.60;;;15.60;49.40;;;;;;5015648;28;20254;-90
2023/05/18 08:58:47;;;;;;;6.63;4.73;;;15.60;48.80;;;;;;5014733;28;20186;-90
2023/05/18 09:01:14;;;;;;;9.33;4.67;;;15.60;49.70;;;;;;5014552;28;20244;-90
2023/05/18 09:03:41;;;;;;;8.07;4.97;;;15.60;49.20;;;;;;5012432;28;20213;-90
2023/05/18 09:06:07;;;;;;;6.07;5.00;;;15.60;50.10;;;;;;5013722;28;20189;-89
2023/05/18 09:08:33;;;;;;;6.43;4.53;;;15.90;49.50;;;;;;5013541;28;20283;-88
2023/05/18 09:11:01;;;;;;;7.20;4.80;;;16.10;49.10;;;;;;5011667;28;20189;-88
2023/05/18 09:13:28;;;;;;;6.13;4.50;;;16.20;48.60;;;;;;5010053;28;20233;-89
2023/05/18 09:15:53;;;;;;;5.97;4.93;;;16.20;47.80;;;;;;5016508;28;20180;-89
2023/05/18 09:18:19;;;;;;;6.23;5.60;;;16.20;47.50;;;;;;5012707;28;20209;-88
2023/05/18 09:20:45;;;;;;;8.77;5.10;;;16.10;48.50;;;;;;5014053;28;20196;-88
2023/05/18 09:23:16;;;;;;;5.33;4.83;;;16.10;48.00;;;;;;5013583;28;20203;-89
2023/05/18 09:25:45;;;;;;;5.53;4.97;;;16.30;48.00;;;;;;5013151;28;20203;-87
2023/05/18 09:28:13;;;;;;;6.83;4.93;;;16.50;48.70;;;;;;5011580;28;20660;-87
2023/05/18 09:30:42;;;;;;;6.87;5.03;;;16.40;47.00;;;;;;5013255;28;20208;-89
2023/05/18 09:33:20;;;;;;;8.07;5.80;;;16.60;47.70;;;;;;5012512;28;20206;-89
2023/05/18 09:35:46;;;;;;;5.80;5.20;;;16.90;46.50;;;;;;5011219;28;20446;-89
2023/05/18 09:38:20;;;;;;;6.80;5.90;;;17.10;46.70;;;;;;5008974;28;20188;-89
2023/05/18 09:40:47;;;;;;;6.30;4.93;;;17.30;45.60;;;;;;5011363;28;20169;-90
2023/05/18 09:43:14;;;;;;;6.03;5.27;;;17.20;46.10;;;;;;5011784;28;20182;-87
2023/05/18 09:45:45;;;;;;;7.00;5.30;;;17.30;44.80;;;;;;5011521;28;20640;-91
2023/05/18 09:48:10;;;;;;;7.50;5.63;;;17.30;45.40;;;;;;5010776;28;20217;-89
2023/05/18 09:50:37;;;;;;;6.37;5.00;;;17.40;45.00;;;;;;5012235;28;20195;-90
2023/05/18 09:53:08;;;;;;;6.10;5.50;;;17.60;44.40;;;;;;5010754;28;20241;-89
2023/05/18 09:55:38;;;;;;;7.63;5.27;;;17.80;42.80;;;;;;5009318;28;20206;-89
2023/05/18 09:58:06;;;;;;;8.13;5.13;;;17.50;44.20;;;;;;5012121;28;20177;-90
2023/05/18 10:00:39;;;;;;;8.50;5.07;;;17.70;43.60;;;;;;5005918;28;20185;-90
2023/05/18 10:03:19;;;;;;;5.77;5.17;;;18.00;43.10;;;;;;5008429;28;20952;-89
2023/05/18 10:05:45;;;;;;;7.60;5.37;;;18.30;41.20;;;;;;5008124;28;20172;-87
2023/05/18 10:08:13;;;;;;;12.00;5.40;;;18.60;40.20;;;;;;5009492;28;20244;-89
2023/05/18 10:10:43;;;;;;;7.33;5.10;;;18.70;40.40;;;;;;5009310;28;20182;-87
2023/05/18 10:13:13;;;;;;;6.15;5.38;;;18.80;41.70;;;;;;5005823;28;20219;-90
2023/05/18 10:15:51;;;;;;;6.13;5.20;;;18.90;38.90;;;;;;5009804;28;20259;-89
2023/05/18 10:18:24;;;;;;;9.50;5.63;;;19.00;39.30;;;;;;5007646;28;20177;-89
2023/05/18 10:20:52;;;;;;;6.80;5.13;;;18.80;39.20;;;;;;5009849;28;20518;-89
2023/05/18 10:23:19;;;;;;;7.33;5.53;;;19.10;38.60;;;;;;5014969;28;20678;-90
2023/05/18 10:25:46;;;;;;;7.90;5.57;;;19.20;37.30;;;;;;5016736;28;20246;-89
2023/05/18 10:28:19;;;;;;;7.05;5.30;;;19.30;38.00;;;;;;5014127;28;20196;-89
2023/05/18 10:30:45;;;;;;;6.22;5.63;;;19.20;37.00;;;;;;5014714;28;20439;-90
2023/05/18 10:33:12;;;;;;;6.68;5.45;;;19.10;36.80;;;;;;5016893;28;20212;-93
2023/05/18 10:35:38;;;;;;;6.03;5.00;;;18.70;37.10;;;;;;5013721;28;20623;-88
2023/05/18 10:38:06;;;;;;;7.53;5.35;;;18.40;37.80;;;;;;5014418;28;20349;-92
2023/05/18 10:40:33;;;;;;;7.87;5.33;;;18.80;37.60;;;;;;5016004;28;20200;-89
2023/05/18 10:43:02;;;;;;;7.63;5.10;;;19.10;36.80;;;;;;5017023;28;20176;-90
2023/05/18 10:45:31;;;;;;;7.68;5.03;;;19.20;35.80;;;;;;5017419;28;20584;-88
2023/05/18 10:48:00;;;;;;;9.32;5.43;;;19.10;36.80;;;;;;5017206;28;20201;-93
2023/05/18 10:50:26;;;;;;;11.10;5.78;;;18.90;36.80;;;;;;5020141;28;20255;-88
2023/05/18 10:52:53;;;;;;;6.95;5.32;;;19.40;35.40;;;;;;5017991;28;20205;-88
2023/05/18 10:55:19;;;;;;;9.18;5.88;;;19.80;36.00;;;;;;5017400;28;20584;-88
2023/05/18 10:57:59;;;;;;;6.68;5.70;;;19.90;34.80;;;;;;5018974;28;20250;-90
2023/05/18 11:00:25;;;;;;;6.25;5.47;;;19.90;34.60;;;;;;5015128;28;20196;-87
2023/05/18 11:02:52;;;;;;;6.97;5.57;;;19.50;34.90;;;;;;5014965;28;20220;-88
2023/05/18 11:05:24;;;;;;;5.60;5.10;;;19.70;35.50;;;;;;5015706;28;20568;-88
2023/05/18 11:08:00;;;;;;;6.10;5.07;;;20.00;34.80;;;;;;5016923;28;20190;-88
2023/05/18 11:10:38;;;;;;;5.97;5.32;;;19.90;34.40;;;;;;5015472;28;20193;-89
2023/05/18 11:13:05;;;;;;;9.35;6.40;;;20.40;34.10;;;;;;5011595;28;20687;-89
2023/05/18 11:15:50;;;;;;;6.78;6.15;;;20.70;32.80;;;;;;5009107;28;20276;-90
2023/05/18 11:18:16;;;;;;;7.15;5.82;;;21.10;33.80;;;;;;5015845;28;20193;-91
2023/05/18 11:20:45;;;;;;;7.13;6.53;;;21.50;32.30;;;;;;5014898;28;20179;-88
2023/05/18 11:23:15;;;;;;;7.68;6.90;;;21.60;31.50;;;;;;5012285;28;20432;-88
2023/05/18 11:25:44;;;;;;;7.93;7.13;;;21.10;32.60;;;;;;5009857;28;20200;-88
2023/05/18 11:28:12;;;;;;;7.85;7.05;;;21.10;32.90;;;;;;5013290;28;20184;-90
2023/05/18 11:30:39;;;;;;;7.40;6.80;;;21.30;32.80;;;;;;5008629;28;20185;-89
2023/05/18 11:33:16;;;;;;;8.00;7.20;;;21.30;33.90;;;;;;5010418;28;20495;-90
2023/05/18 11:35:54;;;;;;;8.63;7.63;;;21.70;32.10;;;;;;5010567;28;20555;-88
2023/05/18 11:38:20;;;;;;;8.45;7.60;;;21.70;31.20;;;;;;5012559;28;20180;-87
2023/05/18 11:40:48;;;;;;;9.82;8.07;;;21.30;32.40;;;;;;5008020;28;20175;-89
2023/05/18 11:43:24;;;;;;;7.72;7.13;;;21.00;32.80;;;;;;5010197;28;20795;-88
2023/05/18 11:45:54;;;;;;;7.03;6.43;;;20.80;33.90;;;;;;5012029;28;20181;-90
2023/05/18 11:48:22;;;;;;;7.68;7.07;;;21.20;33.40;;;;;;5011691;28;20189;-90
2023/05/18 11:50:47;;;;;;;8.23;7.18;;;21.40;31.80;;;;;;5011404;28;20198;-87
2023/05/18 11:53:15;;;;;;;8.00;7.22;;;21.50;31.80;;;;;;5012583;28;20254;-88
2023/05/18 11:55:41;;;;;;;6.78;6.10;;;20.90;32.40;;;;;;5013113;28;20220;-88
2023/05/18 11:58:09;;;;;;;6.97;6.28;;;21.10;31.90;;;;;;5012452;28;20475;-89
2023/05/18 12:00:36;;;;;;;8.50;6.43;;;21.00;32.30;;;;;;5012463;28;20190;-87
2023/05/18 12:03:02;;;;;;;10.48;6.50;;;21.00;32.40;;;;;;5012047;28;20236;-90
2023/05/18 12:05:34;;;;;;;7.70;7.10;;;21.50;32.10;;;;;;5012178;28;20225;-88
2023/05/18 12:08:00;;;;;;;8.35;7.55;;;21.90;31.40;;;;;;5012754;28;20191;-88
2023/05/18 12:10:26;;;;;;;8.13;7.43;;;21.60;30.70;;;;;;5012553;28;20590;-88
2023/05/18 12:12:52;;;;;;;8.50;7.47;;;21.60;30.70;;;;;;5009988;28;20237;-89
2023/05/18 12:15:21;;;;;;;8.40;7.70;;;21.80;30.40;;;;;;5012180;28;20236;-87
2023/05/18 12:17:49;;;;;;;7.72;6.97;;;21.70;30.40;;;;;;5013686;28;20278;-88
2023/05/18 12:20:16;;;;;;;10.38;7.72;;;22.30;30.40;;;;;;5014269;28;20758;-88
2023/05/18 12:22:51;;;;;;;8.85;7.88;;;22.80;29.90;;;;;;5012362;28;20283;-90
2023/05/18 12:25:18;;;;;;;9.05;8.25;;;23.10;29.80;;;;;;5010899;28;20329;-89
2023/05/18 12:27:46;;;;;;;9.10;8.13;;;22.80;29.50;;;;;;5011487;28;20180;-86
2023/05/18 12:30:33;;;;;;;8.63;7.85;;;22.30;30.50;;;;;;5009739;28;20192;-90
2023/05/18 12:33:00;;;;;;;8.55;7.65;;;22.60;30.20;;;;;;5009495;28;20194;-87
2023/05/18 12:35:26;;;;;;;9.23;8.40;;;23.10;29.70;;;;;;5012124;28;20197;-87
2023/05/18 12:37:58;;;;;;;8.65;7.95;;;22.80;29.10;;;;;;5011010;28;20215;-89
2023/05/18 12:40:24;;;;;;;8.93;8.23;;;22.80;29.00;;;;;;5010784;28;20204;-89
2023/05/18 12:42:55;;;;;;;9.02;8.15;;;22.80;28.80;;;;;;5012086;28;20247;-90
2023/05/18 12:45:26;;;;;;;9.63;8.73;;;23.60;29.30;;;;;;5011490;28;20201;-87
2023/05/18 12:47:53;;;;;;;9.90;9.10;;;24.20;27.80;;;;;;5010758;28;20174;-88
2023/05/18 12:50:25;;;;;;;9.30;8.52;;;24.20;27.60;;;;;;5008473;28;20189;-88
2023/05/18 12:52:51;;;;;;;10.85;9.85;;;23.60;28.30;;;;;;5011656;28;20372;-88
2023/05/18 12:55:21;;;;;;;9.90;9.13;;;23.00;28.80;;;;;;5009767;28;20271;-88